Time;durP1;ratioP1;P1;durP2;ratioP2;P2;SDS_P1;SDS_P2;PMS_P1;PMS_P2;Temp;Humidity;BMP_temperature;BMP_pressure;BME280_temperature;BME280_humidity;BME280_pressure;Samples;Min_cycle;Max_cycle;Signal;HPM_P1;HPM_P2
2022/12/15 00:40:57;;;;;;;29.65;12.60;;;;;;;-0.11;100.00;97657.88;4470010;32;20874;-74
2022/12/15 00:43:32;;;;;;;31.23;13.13;;;;;;;-0.20;100.00;97674.72;4470407;32;20347;-74
2022/12/15 00:48:47;;;;;;;30.45;13.45;;;;;;;-0.25;100.00;97658.75;4470278;32;20461;-74
2022/12/15 00:51:14;;;;;;;28.62;13.45;;;;;;;-0.23;100.00;97665.47;4470013;32;20122;-74
2022/12/15 01:21:23;;;;;;;33.03;15.07;;;;;;;-0.26;100.00;97667.38;4476721;31;20174;-74
2022/12/15 01:23:52;;;;;;;44.17;14.95;;;;;;;-0.19;100.00;97664.31;4469954;32;20092;-74
2022/12/15 01:26:19;;;;;;;27.37;13.32;;;;;;;-0.24;100.00;97665.56;4469916;32;20108;-74
2022/12/15 01:28:46;;;;;;;32.03;14.48;;;;;;;-0.19;100.00;97666.91;4470042;32;20552;-74
2022/12/15 01:31:13;;;;;;;33.35;14.05;;;;;;;-0.17;100.00;97660.84;4468699;32;20160;-74
2022/12/15 01:33:43;;;;;;;31.95;14.57;;;;;;;-0.01;100.00;97658.94;4469850;32;20213;-74
2022/12/15 01:36:10;;;;;;;31.58;14.23;;;;;;;0.06;100.00;97655.06;4469821;32;20572;-74
2022/12/15 01:38:38;;;;;;;35.85;14.75;;;;;;;0.03;100.00;97659.56;4469805;32;20120;-74
2022/12/15 01:41:08;;;;;;;34.72;15.30;;;;;;;0.06;100.00;97660.22;4469817;32;20172;-74
2022/12/15 01:43:37;;;;;;;30.73;14.20;;;;;;;0.06;100.00;97662.78;4469746;32;20088;-74
2022/12/15 01:46:06;;;;;;;34.53;14.40;;;;;;;0.08;100.00;97657.53;4470223;32;20502;-74
2022/12/15 01:48:41;;;;;;;35.25;14.82;;;;;;;0.10;100.00;97660.84;4469705;32;20385;-74
2022/12/15 01:51:19;;;;;;;30.37;14.05;;;;;;;0.14;100.00;97652.81;4469787;32;20108;-74
2022/12/15 01:53:53;;;;;;;41.60;14.63;;;;;;;0.18;100.00;97656.00;4469551;32;20591;-74
2022/12/15 01:56:23;;;;;;;32.42;13.60;;;;;;;0.16;100.00;97656.09;4469978;32;20190;-74
2022/12/15 01:58:52;;;;;;;37.83;15.70;;;;;;;0.17;100.00;97652.59;4468477;32;20553;-74
2022/12/15 02:01:19;;;;;;;34.75;15.55;;;;;;;0.13;100.00;97666.59;4468579;32;20130;-74
2022/12/15 02:03:47;;;;;;;35.53;15.40;;;;;;;0.11;100.00;97678.75;4469624;32;20519;-74
2022/12/15 02:06:16;;;;;;;33.25;14.45;;;;;;;0.00;100.00;97670.91;4469827;32;20736;-74
2022/12/15 02:08:46;;;;;;;36.10;15.35;;;;;;;0.00;100.00;97673.47;4474442;32;20159;-74
2022/12/15 02:11:35;;;;;;;37.25;15.23;;;;;;;0.06;100.00;97655.06;4483833;32;20402;-74
2022/12/15 02:14:07;;;;;;;30.42;13.90;;;;;;;0.15;100.00;97664.75;4485684;31;20092;-74
2022/12/15 02:17:03;;;;;;;30.83;15.00;;;;;;;0.17;100.00;97667.25;4484100;32;20089;-74
2022/12/15 02:19:33;;;;;;;32.65;14.23;;;;;;;0.11;100.00;97672.78;4483974;32;20466;-74
2022/12/15 02:22:22;;;;;;;31.48;14.52;;;;;;;0.02;100.00;97684.50;4472377;31;20442;-74
2022/12/15 02:25:01;;;;;;;34.97;15.63;;;;;;;0.08;100.00;97691.81;4469479;32;20084;-74
2022/12/15 02:28:06;;;;;;;27.52;13.98;;;;;;;0.08;100.00;97685.88;4469521;32;20127;-74
2022/12/15 02:30:40;;;;;;;35.30;13.82;;;;;;;0.21;100.00;97673.00;4469314;32;20128;-74
2022/12/15 02:33:22;;;;;;;32.78;15.55;;;;;;;0.19;100.00;97669.72;4468718;32;20407;-74
2022/12/15 02:35:55;;;;;;;35.28;14.15;;;;;;;0.07;100.00;97667.00;4469387;32;20172;-74
2022/12/15 02:38:35;;;;;;;31.60;13.48;;;;;;;0.14;100.00;97663.09;4468184;32;20419;-74
2022/12/15 02:41:04;;;;;;;31.90;13.85;;;;;;;0.07;100.00;97669.56;4469232;32;20092;-74
2022/12/15 02:43:34;;;;;;;35.22;14.63;;;;;;;0.06;100.00;97679.97;4468111;32;20105;-74
2022/12/15 02:46:49;;;;;;;37.65;14.57;;;;;;;0.09;100.00;97675.47;4469411;32;20562;-74
2022/12/15 02:49:43;;;;;;;;;;;;;;;0.01;100.00;97680.25;4420734;32;20224;-74
2022/12/15 02:52:19;;;;;;;39.63;15.07;;;;;;;0.10;100.00;97684.00;4390059;32;19994;-74
2022/12/15 02:54:52;;;;;;;37.45;14.98;;;;;;;0.01;100.00;97682.03;4390295;32;20673;-74
2022/12/15 02:57:30;;;;;;;34.28;15.60;;;;;;;0.01;100.00;97666.56;4390103;32;20141;-74
2022/12/15 03:00:06;;;;;;;40.88;16.12;;;;;;;0.06;100.00;97670.50;4390095;32;20222;-74
2022/12/15 03:02:36;;;;;;;37.78;16.50;;;;;;;0.03;100.00;97675.00;4390154;32;20090;-74
2022/12/15 03:05:04;;;;;;;40.90;16.10;;;;;;;0.10;100.00;97677.09;4390063;32;20150;-74
2022/12/15 03:07:31;;;;;;;38.13;16.25;;;;;;;0.08;100.00;97673.81;4389925;32;20169;-74
2022/12/15 03:10:00;;;;;;;32.95;15.05;;;;;;;-0.04;100.00;97680.56;4402235;32;20499;-73
2022/12/15 03:12:27;;;;;;;36.53;14.95;;;;;;;-0.02;100.00;97673.56;4404960;32;20125;-74
2022/12/15 03:14:54;;;;;;;36.08;15.00;;;;;;;-0.02;100.00;97680.47;4405320;32;20109;-74
2022/12/15 03:17:21;;;;;;;36.13;15.52;;;;;;;-0.20;100.00;97682.44;4405189;32;20143;-74
2022/12/15 03:19:49;;;;;;;36.22;15.90;;;;;;;-0.22;100.00;97679.16;4405019;32;20145;-74
2022/12/15 03:22:16;;;;;;;37.38;16.08;;;;;;;-0.29;100.00;97678.69;4404631;32;20129;-74
2022/12/15 03:24:43;;;;;;;41.83;16.65;;;;;;;-0.27;100.00;97678.59;4406923;32;20707;-74
2022/12/15 03:27:10;;;;;;;38.05;16.55;;;;;;;-0.37;100.00;97691.22;4435671;32;20242;-74
2022/12/15 03:29:37;;;;;;;35.22;15.93;;;;;;;-0.41;100.00;97693.19;4459904;32;20142;-74
2022/12/15 03:32:05;;;;;;;35.42;15.65;;;;;;;-0.55;100.00;97691.44;4468995;32;20096;-74
2022/12/15 03:34:32;;;;;;;42.00;14.90;;;;;;;-0.79;100.00;97691.22;4468823;32;20104;-74
2022/12/15 03:36:59;;;;;;;34.38;15.15;;;;;;;-0.68;100.00;97698.28;4468838;32;20484;-74
2022/12/15 03:39:26;;;;;;;38.03;16.60;;;;;;;-0.84;100.00;97690.63;4468887;32;20088;-74
2022/12/15 03:41:54;;;;;;;32.58;14.93;;;;;;;-0.83;100.00;97688.88;4468644;32;20139;-74
2022/12/15 03:44:21;;;;;;;40.85;16.35;;;;;;;-0.76;100.00;97685.88;4468590;32;20117;-74
2022/12/15 03:46:48;;;;;;;45.33;16.08;;;;;;;-0.61;100.00;97681.50;4468814;32;20105;-74
2022/12/15 03:49:15;;;;;;;39.72;16.65;;;;;;;-0.67;100.00;97691.37;4468749;32;20112;-74
2022/12/15 03:51:43;;;;;;;35.85;15.88;;;;;;;-0.78;100.00;97689.44;4468638;32;20539;-74
2022/12/15 03:54:12;;;;;;;33.67;15.80;;;;;;;-0.81;100.00;97699.91;4468584;32;20510;-74
2022/12/15 03:56:39;;;;;;;33.97;15.20;;;;;;;-0.88;100.00;97701.19;4468828;32;20160;-74
2022/12/15 03:59:06;;;;;;;39.97;14.90;;;;;;;-0.96;100.00;97702.47;4468787;32;20442;-74
2022/12/15 04:01:35;;;;;;;39.10;15.23;;;;;;;-0.92;100.00;97701.38;4468509;32;20122;-74
2022/12/15 04:04:03;;;;;;;43.55;16.30;;;;;;;-0.82;100.00;97698.25;4468574;32;20153;-74
2022/12/15 04:06:30;;;;;;;32.50;14.27;;;;;;;-0.91;100.00;97695.34;4468572;32;20136;-74
2022/12/15 04:08:57;;;;;;;37.22;16.25;;;;;;;-0.76;100.00;97700.47;4474734;32;20092;-74
2022/12/15 04:11:25;;;;;;;41.40;14.85;;;;;;;-0.72;100.00;97709.66;4483903;31;20435;-74
2022/12/15 04:13:52;;;;;;;33.28;13.93;;;;;;;-0.67;100.00;97715.31;4484309;31;20603;-74
2022/12/15 04:16:19;;;;;;;31.10;14.23;;;;;;;-0.48;100.00;97722.78;4484276;31;20485;-74
2022/12/15 04:20:07;;;;;;;37.05;15.55;;;;;;;-0.37;100.00;97733.22;4484096;31;20092;-74
2022/12/15 04:21:34;;;;;;;38.28;16.65;;;;;;;-0.29;100.00;97727.59;4474466;31;20096;-74
2022/12/15 05:33:05;;;;;;;44.50;17.85;;;;;;;-0.31;100.00;97819.50;4483159;31;20104;-75
2022/12/15 05:35:32;;;;;;;40.90;17.23;;;;;;;-0.32;100.00;97825.56;4483372;32;20096;-75
2022/12/15 05:37:59;;;;;;;42.28;17.80;;;;;;;-0.38;100.00;97826.78;4483073;32;20126;-75
2022/12/15 05:40:26;;;;;;;42.50;17.50;;;;;;;-0.40;100.00;97832.94;4483595;32;20164;-76
2022/12/15 05:42:57;;;;;;;40.42;18.40;;;;;;;-0.45;100.00;97834.97;4483221;32;20506;-75
2022/12/15 05:45:25;;;;;;;36.63;16.52;;;;;;;-0.37;100.00;97843.03;4483255;31;20496;-77
2022/12/15 05:47:53;;;;;;;37.53;18.15;;;;;;;-0.29;100.00;97834.88;4483188;31;20104;-76
2022/12/15 05:50:21;;;;;;;39.75;17.35;;;;;;;-0.25;100.00;97847.44;4483445;31;20128;-77
2022/12/15 05:52:49;;;;;;;41.53;17.35;;;;;;;-0.37;100.00;97858.47;4483468;31;20143;-77
2022/12/15 05:55:17;;;;;;;39.75;16.02;;;;;;;-0.50;100.00;97858.41;4482878;31;20100;-76
2022/12/15 05:57:50;;;;;;;43.50;17.70;;;;;;;-0.48;100.00;97861.69;4483440;31;20857;-77
2022/12/15 06:00:18;;;;;;;44.35;17.58;;;;;;;-0.34;100.00;97868.59;4476719;32;20095;-76
2022/12/15 06:02:45;;;;;;;37.95;17.52;;;;;;;-0.29;100.00;97876.84;4481207;31;20139;-77
2022/12/15 06:05:16;;;;;;;44.20;19.42;;;;;;;-0.36;100.00;97881.56;4481355;31;20106;-78
2022/12/15 06:07:43;;;;;;;47.38;18.42;;;;;;;-0.46;100.00;97895.88;4480702;32;20126;-78
2022/12/15 06:10:10;;;;;;;39.67;18.05;;;;;;;-0.40;100.00;97902.41;4481175;31;20152;-79
2022/12/15 06:12:38;;;;;;;41.85;18.80;;;;;;;-0.33;100.00;97910.59;4482420;31;20151;-79
2022/12/15 06:15:05;;;;;;;48.83;18.67;;;;;;;-0.21;100.00;97910.69;4483572;31;20085;-76
2022/12/15 06:17:32;;;;;;;43.75;19.95;;;;;;;-0.22;100.00;97909.03;4482353;31;20163;-76
2022/12/15 06:19:59;;;;;;;40.63;19.83;;;;;;;-0.17;100.00;97911.34;4484002;31;20431;-78
2022/12/15 06:22:29;;;;;;;42.78;18.25;;;;;;;-0.37;100.00;97904.81;4483064;32;20184;-76
2022/12/15 06:24:56;;;;;;;45.42;20.15;;;;;;;-0.30;100.00;97910.41;4479954;32;20131;-75
2022/12/15 06:27:23;;;;;;;47.17;19.42;;;;;;;-0.17;100.00;97915.66;4476024;32;20587;-75
2022/12/15 06:29:50;;;;;;;49.85;22.13;;;;;;;-0.21;100.00;97913.28;4476670;31;20273;-74
2022/12/15 06:32:20;;;;;;;57.65;22.98;;;;;;;-0.22;100.00;97915.94;4481451;31;20096;-76
2022/12/15 06:34:48;;;;;;;49.30;20.75;;;;;;;-0.18;100.00;97909.72;4475317;31;20101;-77
2022/12/15 06:37:15;;;;;;;52.90;21.60;;;;;;;-0.25;100.00;97903.25;4476399;32;20524;-77
2022/12/15 06:39:42;;;;;;;46.28;20.05;;;;;;;-0.26;100.00;97905.00;4482568;31;20123;-77
2022/12/15 06:42:09;;;;;;;43.72;19.83;;;;;;;-0.26;100.00;97920.44;4477754;31;20105;-76
2022/12/15 06:44:36;;;;;;;46.55;20.60;;;;;;;-0.23;100.00;97920.28;4477937;31;20089;-75
2022/12/15 06:47:03;;;;;;;46.45;19.55;;;;;;;-0.14;100.00;97934.31;4465251;32;20476;-76
2022/12/15 06:49:30;;;;;;;48.65;20.95;;;;;;;0.01;100.00;97932.59;4478642;31;20087;-77
2022/12/15 06:51:57;;;;;;;40.95;19.62;;;;;;;0.04;100.00;97934.16;4480730;31;20126;-78
2022/12/15 06:54:25;;;;;;;48.15;20.05;;;;;;;0.11;100.00;97950.91;4484330;31;20097;-77
2022/12/15 06:56:52;;;;;;;47.30;20.25;;;;;;;0.15;100.00;97962.66;4482432;31;20126;-75
2022/12/15 06:59:19;;;;;;;52.33;19.73;;;;;;;0.21;100.00;97967.44;4480132;32;20146;-76
2022/12/15 07:01:46;;;;;;;47.60;18.42;;;;;;;0.22;100.00;97963.12;4482779;31;20163;-76
2022/12/15 07:04:14;;;;;;;49.80;19.77;;;;;;;0.40;100.00;97977.47;4481571;32;20085;-76
2022/12/15 07:06:41;;;;;;;50.80;20.30;;;;;;;0.46;100.00;97982.25;4482262;32;20142;-76
2022/12/15 07:09:12;;;;;;;47.50;18.95;;;;;;;0.67;100.00;97989.63;4476979;32;20104;-74
2022/12/15 07:11:39;;;;;;;48.38;20.75;;;;;;;0.69;100.00;98001.47;4475617;31;20118;-75
2022/12/15 07:14:06;;;;;;;50.10;19.17;;;;;;;0.73;100.00;98004.69;4479380;32;20084;-76
2022/12/15 07:16:33;;;;;;;53.22;19.55;;;;;;;0.76;100.00;97995.94;4481020;32;20140;-75
2022/12/15 07:19:01;;;;;;;48.28;19.92;;;;;;;0.73;100.00;97984.09;4482264;31;20479;-78
2022/12/15 07:21:28;;;;;;;55.92;21.30;;;;;;;0.72;100.00;98003.03;4475502;32;20571;-75
2022/12/15 07:23:56;;;;;;;41.35;17.92;;;;;;;0.80;100.00;97998.25;4482086;31;20540;-76
2022/12/15 07:26:24;;;;;;;41.63;17.90;;;;;;;0.92;100.00;97988.91;4482630;31;20156;-77
2022/12/15 07:28:52;;;;;;;49.55;20.08;;;;;;;0.87;100.00;97993.53;4480036;31;20129;-76
2022/12/15 07:31:20;;;;;;;46.35;20.23;;;;;;;0.97;100.00;97992.03;4478372;32;20160;-76
2022/12/15 07:33:48;;;;;;;44.88;19.87;;;;;;;1.00;100.00;98006.47;4479330;32;20461;-74
2022/12/15 07:36:15;;;;;;;42.58;18.65;;;;;;;0.80;100.00;98020.59;4473593;32;20555;-76
2022/12/15 07:38:44;;;;;;;43.80;17.85;;;;;;;0.80;100.00;98020.59;4477537;32;20213;-77
2022/12/15 07:41:17;;;;;;;44.20;17.37;;;;;;;0.90;100.00;98010.56;4472018;32;20096;-76
2022/12/15 07:43:45;;;;;;;44.67;18.23;;;;;;;0.82;100.00;98017.03;4475052;31;20146;-74
2022/12/15 07:46:13;;;;;;;42.65;17.08;;;;;;;0.91;100.00;98009.63;4474215;31;20434;-74
2022/12/15 07:48:40;;;;;;;50.88;19.23;;;;;;;0.89;100.00;97999.41;4478251;32;20125;-74
2022/12/15 07:51:07;;;;;;;46.97;18.70;;;;;;;0.83;100.00;98005.81;4481774;31;20126;-76
2022/12/15 07:53:48;;;;;;;44.95;19.00;;;;;;;0.85;100.00;98022.00;4470408;32;20092;-73
2022/12/15 07:56:17;;;;;;;46.97;20.10;;;;;;;0.88;100.00;98028.72;4481682;31;20104;-73
2022/12/15 07:58:44;;;;;;;44.38;18.48;;;;;;;0.96;100.00;98030.81;4478883;31;20151;-76
2022/12/15 08:01:12;;;;;;;48.53;18.52;;;;;;;1.04;100.00;98024.25;4478844;31;20164;-74
2022/12/15 08:03:39;;;;;;;42.75;18.30;;;;;;;0.97;100.00;98032.47;4482132;31;20097;-74
2022/12/15 08:06:10;;;;;;;40.80;18.27;;;;;;;0.91;100.00;98040.56;4477548;31;20113;-75
2022/12/15 08:08:38;;;;;;;52.67;19.62;;;;;;;1.07;100.00;98046.44;4477829;32;20141;-75
2022/12/15 08:11:07;;;;;;;46.33;19.62;;;;;;;1.01;100.00;98050.22;4475285;32;20115;-75
2022/12/15 08:13:35;;;;;;;45.35;18.40;;;;;;;1.04;100.00;98054.38;4476527;31;20470;-76
2022/12/15 08:16:22;;;;;;;50.08;21.08;;;;;;;1.04;100.00;98055.19;4476116;32;20177;-75
2022/12/15 08:18:49;;;;;;;48.05;19.52;;;;;;;0.80;100.00;98061.84;4475568;32;20499;-76
2022/12/15 08:21:17;;;;;;;43.05;18.92;;;;;;;0.94;100.00;98054.12;4476250;32;20152;-75
2022/12/15 08:23:44;;;;;;;48.47;19.77;;;;;;;1.04;100.00;98050.03;4478482;32;20089;-74
2022/12/15 08:26:14;;;;;;;50.92;20.88;;;;;;;1.03;100.00;98055.28;4474884;31;20104;-75
2022/12/15 08:28:41;;;;;;;51.45;20.55;;;;;;;1.20;100.00;98056.84;4478917;31;20122;-75
2022/12/15 08:31:11;;;;;;;50.00;20.55;;;;;;;1.17;100.00;98046.72;4481609;31;20088;-74
2022/12/15 08:33:38;;;;;;;55.20;21.48;;;;;;;1.35;100.00;98057.63;4482912;32;20088;-74
2022/12/15 08:36:08;;;;;;;45.63;19.12;;;;;;;1.52;100.00;98053.97;4484459;31;20156;-73
2022/12/15 08:38:37;;;;;;;56.53;21.45;;;;;;;1.38;100.00;98058.25;4482659;31;20147;-76
2022/12/15 08:41:14;;;;;;;54.72;21.42;;;;;;;1.27;100.00;98065.00;4484104;31;20100;-73
2022/12/15 08:43:42;;;;;;;51.58;21.15;;;;;;;1.40;100.00;98065.91;4481292;32;20092;-73
2022/12/15 08:46:20;;;;;;;48.72;19.62;;;;;;;1.38;100.00;98085.81;4477006;31;20386;-72
2022/12/15 08:48:48;;;;;;;57.67;21.00;;;;;;;1.38;100.00;98089.22;4482009;31;20092;-72
2022/12/15 08:51:16;;;;;;;54.42;22.35;;;;;;;1.45;100.00;98084.50;4481549;31;20122;-73
2022/12/15 08:53:43;;;;;;;50.95;20.90;;;;;;;1.64;100.00;98085.94;4480491;31;20139;-73
2022/12/15 08:56:17;;;;;;;50.95;21.12;;;;;;;1.65;100.00;98097.91;4481357;32;20406;-75
2022/12/15 08:58:45;;;;;;;49.80;20.92;;;;;;;1.87;100.00;98103.34;4479811;31;20105;-72
2022/12/15 09:01:19;;;;;;;62.33;23.23;;;;;;;1.94;100.00;98104.59;4481721;31;20103;-73
2022/12/15 09:03:53;;;;;;;51.97;21.40;;;;;;;1.99;100.00;98106.06;4480400;31;20085;-73
2022/12/15 09:06:32;;;;;;;52.17;20.12;;;;;;;2.00;100.00;98102.53;4482249;31;20399;-73
2022/12/15 09:09:03;;;;;;;44.70;18.52;;;;;;;1.74;100.00;98094.72;4482329;32;20080;-73
2022/12/15 09:11:30;;;;;;;50.60;21.90;;;;;;;1.77;100.00;98084.19;4483134;31;20208;-73
2022/12/15 09:13:58;;;;;;;46.33;19.98;;;;;;;1.66;100.00;98091.81;4480961;32;20111;-73
2022/12/15 09:16:26;;;;;;;50.35;21.35;;;;;;;1.86;100.00;98088.78;4480125;32;20422;-72
2022/12/15 09:18:56;;;;;;;49.92;21.60;;;;;;;2.04;100.00;98085.94;4476544;32;20155;-73
2022/12/15 09:21:25;;;;;;;47.38;19.67;;;;;;;1.88;100.00;98080.94;4477066;32;20149;-71
2022/12/15 09:23:54;;;;;;;53.75;22.67;;;;;;;2.18;100.00;98085.88;4482661;31;20104;-72
2022/12/15 09:26:22;;;;;;;47.20;20.48;;;;;;;2.39;100.00;98095.69;4483064;31;20120;-72
2022/12/15 09:28:50;;;;;;;45.30;19.10;;;;;;;2.37;100.00;98072.53;4483027;32;21125;-71
2022/12/15 09:31:20;;;;;;;42.88;18.65;;;;;;;2.12;100.00;98068.19;4484678;31;20171;-72
2022/12/15 09:33:49;;;;;;;49.08;19.95;;;;;;;2.05;100.00;98066.94;4477712;32;20187;-73
2022/12/15 09:36:17;;;;;;;48.60;21.37;;;;;;;2.04;100.00;98066.06;4467254;32;20116;-75
2022/12/15 09:38:44;;;;;;;53.35;20.45;;;;;;;2.12;100.00;98075.94;4473805;32;20080;-74
2022/12/15 09:41:12;;;;;;;52.10;21.00;;;;;;;2.17;100.00;98093.72;4479902;31;20167;-73
2022/12/15 09:44:01;;;;;;;52.65;20.45;;;;;;;2.36;100.00;98109.63;4473422;31;20085;-71
2022/12/15 09:46:44;;;;;;;47.53;19.87;;;;;;;2.40;100.00;98105.94;4475472;32;20203;-73
2022/12/15 09:49:31;;;;;;;50.63;20.90;;;;;;;2.57;100.00;98109.97;4475916;31;20095;-72
2022/12/15 09:52:10;;;;;;;48.42;20.55;;;;;;;2.35;100.00;98117.50;4474929;32;20108;-72
2022/12/15 09:54:40;;;;;;;45.85;19.33;;;;;;;2.35;100.00;98107.16;4468765;32;20100;-74
2022/12/15 09:57:21;;;;;;;43.83;20.50;;;;;;;2.41;100.00;98112.75;4473206;32;20134;-73
2022/12/15 10:00:10;;;;;;;55.00;20.23;;;;;;;2.36;100.00;98116.56;4478487;32;20087;-72
2022/12/15 10:02:56;;;;;;;45.67;19.80;;;;;;;2.24;100.00;98119.06;4479966;32;20142;-72
2022/12/15 10:05:44;;;;;;;47.15;21.37;;;;;;;2.15;100.00;98114.50;4479452;31;20105;-73
2022/12/15 10:08:39;;;;;;;50.20;21.02;;;;;;;2.09;100.00;98109.69;4483478;32;20131;-74
2022/12/15 10:11:17;;;;;;;55.30;21.52;;;;;;;1.93;100.00;98113.28;4475688;32;20139;-74
2022/12/15 10:13:52;;;;;;;54.75;23.52;;;;;;;1.97;100.00;98126.84;4472820;32;20096;-73
2022/12/15 10:16:25;;;;;;;51.75;24.15;;;;;;;2.05;100.00;98126.34;4475547;32;20145;-73
2022/12/15 10:18:55;;;;;;;57.22;23.48;;;;;;;1.73;100.00;98111.97;4480288;32;20108;-74
2022/12/15 10:21:29;;;;;;;50.45;22.95;;;;;;;1.97;100.00;98095.00;4478181;32;20657;-74
2022/12/15 10:24:19;;;;;;;58.92;24.52;;;;;;;2.11;100.00;98100.09;4476663;32;20116;-76
2022/12/15 10:27:16;;;;;;;56.58;23.12;;;;;;;1.99;100.00;98077.66;4476797;32;20115;-75
2022/12/15 10:29:46;;;;;;;57.00;24.35;;;;;;;2.18;100.00;98080.69;4477754;32;20210;-75
2022/12/15 10:32:48;;;;;;;59.22;25.12;;;;;;;2.01;100.00;98075.78;4475052;32;20131;-75
2022/12/15 10:35:38;;;;;;;56.17;23.30;;;;;;;2.29;100.00;98083.38;4479369;32;20120;-73
2022/12/15 10:38:18;;;;;;;55.58;24.77;;;;;;;2.29;100.00;98085.97;4481852;31;20532;-74
2022/12/15 10:40:48;;;;;;;54.95;21.67;;;;;;;2.39;100.00;98098.28;4481615;32;20164;-75
2022/12/15 10:43:39;;;;;;;64.78;24.17;;;;;;;2.46;100.00;98097.75;4483687;31;20111;-76
2022/12/15 10:46:14;;;;;;;58.47;24.58;;;;;;;2.51;100.00;98099.22;4482445;31;20092;-76
2022/12/15 10:48:43;;;;;;;52.42;22.75;;;;;;;2.46;100.00;98104.69;4481934;31;20131;-72
2022/12/15 10:51:16;;;;;;;55.53;23.15;;;;;;;2.52;100.00;98098.28;4482501;32;20156;-75
2022/12/15 10:53:48;;;;;;;64.00;23.08;;;;;;;2.44;100.00;98083.31;4479436;31;20162;-75
2022/12/15 10:56:28;;;;;;;54.63;22.80;;;;;;;2.59;100.00;98084.84;4481932;31;20528;-74
2022/12/15 10:59:21;;;;;;;59.30;24.37;;;;;;;2.62;100.00;98089.81;4475567;32;20433;-75
2022/12/15 11:01:49;;;;;;;53.58;21.37;;;;;;;2.67;100.00;98090.31;4474936;32;20157;-74
2022/12/15 11:04:31;;;;;;;59.42;23.62;;;;;;;2.61;100.00;98089.91;4478517;32;20111;-75
2022/12/15 11:07:01;;;;;;;57.75;23.70;;;;;;;2.55;100.00;98101.50;4473491;32;20215;-75
2022/12/15 11:09:36;;;;;;;56.63;23.33;;;;;;;2.63;100.00;98099.25;4473171;32;20512;-75
2022/12/15 11:15:29;;;;;;;55.55;23.30;;;;;;;2.86;100.00;98096.00;4469003;32;20108;-74
2022/12/15 11:18:04;;;;;;;62.72;23.95;;;;;;;2.81;100.00;98104.06;4476109;32;20139;-75
2022/12/15 11:20:36;;;;;;;;;;;;;;;2.81;100.00;98104.06;4474844;32;20072;-75
2022/12/15 11:23:11;;;;;;;60.33;22.42;;;;;;;2.79;100.00;98099.00;4471208;32;20043;-74
2022/12/15 11:25:42;;;;;;;;;;;;;;;2.91;100.00;98094.75;4468462;32;20108;-73
2022/12/15 11:28:22;;;;;;;54.40;21.08;;;;;;;3.10;100.00;98102.06;4467425;32;20047;-75
2022/12/15 11:30:59;;;;;;;51.45;22.00;;;;;;;3.12;100.00;98105.38;4472603;32;20692;-75
2022/12/15 11:33:27;;;;;;;56.58;22.90;;;;;;;3.18;100.00;98099.78;4479493;32;20095;-75
2022/12/15 11:36:22;;;;;;;54.05;22.62;;;;;;;3.26;100.00;98104.41;4477834;32;20122;-76
2022/12/15 11:38:54;;;;;;;53.13;22.80;;;;;;;3.25;100.00;98100.16;4477992;32;20348;-76
2022/12/15 11:41:32;;;;;;;59.75;23.83;;;;;;;3.21;100.00;98103.94;4479135;32;20085;-76
2022/12/15 11:44:23;;;;;;;56.00;22.20;;;;;;;3.03;100.00;98100.84;4482663;31;20119;-75
2022/12/15 11:47:02;;;;;;;58.20;23.05;;;;;;;3.19;100.00;98116.97;4477182;32;20103;-74
2022/12/15 11:49:35;;;;;;;60.80;23.20;;;;;;;3.14;100.00;98118.22;4476979;32;20143;-74
2022/12/15 11:52:32;;;;;;;54.92;24.40;;;;;;;3.20;100.00;98112.63;4480108;31;20088;-75
2022/12/15 11:55:17;;;;;;;57.10;24.10;;;;;;;2.85;100.00;98133.97;4479537;31;20157;-75
2022/12/15 11:58:01;;;;;;;59.83;23.08;;;;;;;2.82;100.00;98126.44;4478353;32;20092;-75
2022/12/15 12:00:32;;;;;;;59.70;24.33;;;;;;;2.94;100.00;98127.38;4469994;32;20108;-75
2022/12/15 12:03:18;;;;;;;62.00;25.17;;;;;;;3.03;100.00;98131.91;4481789;32;20115;-73
2022/12/15 12:05:52;;;;;;;62.83;26.05;;;;;;;3.10;100.00;98127.94;4483288;32;20121;-74
2022/12/15 12:08:20;;;;;;;;;;;;;;;2.92;100.00;98114.53;4480886;31;20126;-74
2022/12/15 12:10:50;;;;;;;71.07;24.67;;;;;;;2.83;100.00;98113.41;4484071;31;20797;-74
2022/12/15 12:13:27;;;;;;;64.80;25.00;;;;;;;2.66;100.00;98109.38;4483472;31;20135;-73
2022/12/15 12:15:54;;;;;;;68.28;25.52;;;;;;;2.72;100.00;98110.69;4480567;31;20130;-75
2022/12/15 12:18:25;;;;;;;63.72;24.95;;;;;;;2.84;100.00;98109.03;4481341;31;20080;-75
2022/12/15 12:20:56;;;;;;;70.60;26.00;;;;;;;3.00;100.00;98112.22;4479685;32;20244;-76
2022/12/15 12:23:55;;;;;;;59.58;26.12;;;;;;;3.02;100.00;98104.38;4479205;32;20097;-74
2022/12/15 12:26:36;;;;;;;64.10;25.25;;;;;;;3.14;100.00;98103.50;4435165;32;20499;-75
2022/12/15 12:29:16;;;;;;;65.25;27.02;;;;;;;3.25;100.00;98109.72;4429652;32;20222;-74
2022/12/15 12:32:01;;;;;;;67.43;28.70;;;;;;;3.29;100.00;98093.84;4437625;32;20100;-74
2022/12/15 12:34:46;;;;;;;62.05;26.48;;;;;;;3.42;100.00;98096.37;4435116;32;20366;-74
2022/12/15 12:37:40;;;;;;;67.47;26.55;;;;;;;3.27;100.00;98098.31;4446336;32;20168;-75
2022/12/15 12:40:38;;;;;;;84.00;29.63;;;;;;;3.38;100.00;98092.38;4448110;32;20143;-73
2022/12/15 12:43:08;;;;;;;74.90;27.70;;;;;;;3.20;100.00;98091.91;4447881;32;20411;-75
2022/12/15 12:45:39;;;;;;;;;;;;;;;3.13;100.00;98093.25;4436319;32;20144;-75
2022/12/15 12:48:20;;;;;;;69.65;25.33;;;;;;;3.24;100.00;98097.69;4448070;32;20625;-75
2022/12/15 12:50:47;;;;;;;74.57;26.85;;;;;;;3.41;100.00;98104.25;4451358;32;20172;-75
2022/12/15 12:53:33;;;;;;;73.68;28.85;;;;;;;3.42;100.00;98105.94;4446478;32;20966;-74
2022/12/15 12:56:01;;;;;;;76.43;31.20;;;;;;;3.50;100.00;98114.00;4451034;32;20093;-74
2022/12/15 12:58:31;;;;;;;72.20;30.33;;;;;;;3.38;100.00;98115.69;4449577;32;20133;-75
2022/12/15 13:01:11;;;;;;;76.78;29.60;;;;;;;3.14;100.00;98102.69;4444645;32;20117;-75
2022/12/15 13:03:40;;;;;;;73.62;27.35;;;;;;;3.31;100.00;98104.09;4468144;32;20151;-74
2022/12/15 13:06:19;;;;;;;65.10;27.25;;;;;;;3.50;100.00;98114.81;4483388;31;20092;-75
2022/12/15 13:08:51;;;;;;;68.03;26.48;;;;;;;3.54;100.00;98115.41;4473961;32;20097;-74
2022/12/15 13:11:54;;;;;;;68.07;26.77;;;;;;;3.62;100.00;98122.62;4479977;32;20100;-75
2022/12/15 13:14:34;;;;;;;63.25;25.80;;;;;;;3.61;100.00;98131.34;4481306;31;20532;-75
2022/12/15 13:17:23;;;;;;;69.68;26.92;;;;;;;3.66;100.00;98119.72;4470466;32;20084;-75
2022/12/15 13:20:28;;;;;;;64.90;25.55;;;;;;;3.63;100.00;98130.28;4469018;32;20160;-75
2022/12/15 13:23:16;;;;;;;64.07;24.50;;;;;;;3.47;100.00;98124.56;4473087;32;20462;-74
2022/12/15 13:25:45;;;;;;;68.37;28.05;;;;;;;3.37;100.00;98120.00;4478927;31;20159;-75
2022/12/15 13:28:29;;;;;;;65.80;26.17;;;;;;;3.22;100.00;98126.28;4473849;32;20076;-75
2022/12/15 13:31:15;;;;;;;60.63;24.75;;;;;;;3.36;100.00;98131.31;4478848;32;20092;-74
2022/12/15 13:33:55;;;;;;;59.38;25.05;;;;;;;3.17;100.00;98134.34;4478564;32;20100;-75
2022/12/15 13:36:42;;;;;;;73.20;27.20;;;;;;;3.07;100.00;98130.75;4468904;32;20127;-74
2022/12/15 13:39:18;;;;;;;67.12;25.12;;;;;;;3.14;100.00;98133.75;4479616;32;20110;-75
2022/12/15 13:41:45;;;;;;;64.75;28.35;;;;;;;3.09;100.00;98136.66;4479572;32;20185;-75
2022/12/15 13:44:41;;;;;;;73.97;28.45;;;;;;;2.97;100.00;98133.16;4478203;32;20114;-75
2022/12/15 13:47:12;;;;;;;76.85;29.77;;;;;;;2.88;100.00;98132.94;4482023;32;20205;-75
2022/12/15 13:49:46;;;;;;;70.60;26.58;;;;;;;2.94;100.00;98135.94;4475147;31;20092;-74
2022/12/15 13:52:53;;;;;;;66.50;27.55;;;;;;;2.75;100.00;98127.78;4474019;32;20394;-75
2022/12/15 13:56:20;;;;;;;67.53;26.27;;;;;;;2.88;100.00;98138.94;4478995;32;20118;-74
2022/12/15 13:59:32;;;;;;;68.28;25.30;;;;;;;2.69;100.00;98133.34;4477967;32;20115;-75
2022/12/15 14:02:26;;;;;;;77.15;28.67;;;;;;;2.75;100.00;98117.44;4477559;32;20483;-75
2022/12/15 14:05:13;;;;;;;81.30;29.80;;;;;;;2.75;100.00;98120.00;4475020;32;20105;-74
2022/12/15 14:08:02;;;;;;;72.80;28.25;;;;;;;2.70;100.00;98124.69;4475806;32;20088;-75
2022/12/15 14:10:57;;;;;;;73.70;26.17;;;;;;;2.64;100.00;98125.91;4475773;32;20159;-74